Time;durP1;ratioP1;P1;durP2;ratioP2;P2;SDS_P1;SDS_P2;PMS_P1;PMS_P2;Temp;Humidity;BMP_temperature;BMP_pressure;BME280_temperature;BME280_humidity;BME280_pressure;Samples;Min_cycle;Max_cycle;Signal;HPM_P1;HPM_P2
2021/11/05 00:01:58;;;;;;;6.32;2.20;;;;;;;19.11;62.45;101656.19;5114419;27;20044;-81
2021/11/05 00:04:25;;;;;;;6.43;2.42;;;;;;;19.19;62.32;101653.47;5130633;27;20044;-82
2021/11/05 00:06:53;;;;;;;5.00;1.80;;;;;;;19.20;62.23;101656.13;5095538;27;20052;-82
2021/11/05 00:09:21;;;;;;;10.15;2.78;;;;;;;19.14;62.23;101652.59;5114511;27;20543;-82
2021/11/05 00:11:48;;;;;;;9.93;3.20;;;;;;;18.84;63.01;101653.66;5114377;27;20104;-82
2021/11/05 00:14:16;;;;;;;5.95;2.28;;;;;;;18.66;63.33;101649.22;5114173;27;20104;-81
2021/11/05 00:16:44;;;;;;;8.45;2.95;;;;;;;18.63;63.46;101660.84;5096504;27;20048;-81
2021/11/05 00:19:13;;;;;;;8.75;3.00;;;;;;;18.75;63.42;101649.22;5114462;27;20040;-81
2021/11/05 00:21:41;;;;;;;9.43;2.88;;;;;;;18.84;62.91;101645.63;5129759;27;20072;-81
2021/11/05 00:24:09;;;;;;;7.97;2.10;;;;;;;18.90;62.76;101651.84;5114309;27;20043;-72
2021/11/05 00:26:36;;;;;;;10.07;2.40;;;;;;;18.95;62.39;101651.81;5096481;28;20036;-81
2021/11/05 00:29:04;;;;;;;7.72;2.03;;;;;;;18.97;62.31;101652.69;5100301;28;20471;-82
2021/11/05 00:31:32;;;;;;;6.97;1.90;;;;;;;18.92;62.30;101652.69;5113897;27;20043;-81
2021/11/05 00:34:00;;;;;;;10.82;2.97;;;;;;;18.92;62.46;101651.81;5114311;27;20487;-81
2021/11/05 00:36:29;;;;;;;10.10;2.63;;;;;;;18.86;62.50;101655.41;5095877;27;20556;-82
2021/11/05 00:38:56;;;;;;;9.43;2.92;;;;;;;18.81;62.67;101653.66;5095932;27;20402;-81
2021/11/05 00:41:24;;;;;;;8.98;2.65;;;;;;;18.79;62.63;101648.28;5130055;27;20128;-82
2021/11/05 00:43:51;;;;;;;7.50;3.25;;;;;;;18.69;62.88;101644.78;5113742;27;20394;-82
2021/11/05 00:46:19;;;;;;;7.22;2.75;;;;;;;18.61;63.31;101645.69;5113584;27;20067;-82
2021/11/05 00:48:47;;;;;;;10.68;2.67;;;;;;;18.51;63.38;101649.28;5113782;27;20096;-81
2021/11/05 00:51:14;;;;;;;8.90;2.53;;;;;;;18.39;64.07;101639.47;5112961;27;20040;-81
2021/11/05 00:53:44;;;;;;;9.63;2.58;;;;;;;18.44;64.19;101634.13;5113260;27;20122;-82
2021/11/05 00:56:12;;;;;;;9.88;2.30;;;;;;;18.46;63.83;101638.56;5113394;27;20044;-81
2021/11/05 00:58:39;;;;;;;11.25;3.47;;;;;;;18.52;63.53;101635.88;5113589;27;20165;-78
2021/11/05 01:01:07;;;;;;;7.13;2.33;;;;;;;18.49;63.65;101632.31;5129839;27;20043;-81
2021/11/05 01:03:35;;;;;;;7.70;3.03;;;;;;;18.50;63.67;101632.34;5099646;28;20100;-82
2021/11/05 01:06:02;;;;;;;7.80;2.38;;;;;;;18.51;63.76;101625.19;5113355;27;20101;-81
2021/11/05 01:08:30;;;;;;;7.45;2.22;;;;;;;18.54;63.83;101617.16;5113413;27;20061;-80
2021/11/05 01:10:59;;;;;;;11.43;2.88;;;;;;;18.55;63.74;101617.19;5113106;27;20403;-82
2021/11/05 01:13:27;;;;;;;9.23;2.58;;;;;;;18.30;64.23;101611.00;5095048;27;20039;-83
2021/11/05 01:15:55;;;;;;;9.20;3.28;;;;;;;17.96;65.34;101619.97;5113295;27;20040;-82
2021/11/05 01:18:22;;;;;;;6.40;2.72;;;;;;;17.81;65.94;101617.28;5095431;27;20078;-81
2021/11/05 01:20:50;;;;;;;10.32;2.30;;;;;;;17.79;66.22;101608.38;5113106;27;20512;-82
2021/11/05 01:23:21;;;;;;;11.18;3.13;;;;;;;18.03;65.82;101607.47;5095074;27;20413;-82
2021/11/05 01:25:49;;;;;;;8.27;2.60;;;;;;;18.21;65.05;101613.69;5094353;27;20096;-82
2021/11/05 01:28:18;;;;;;;8.70;3.08;;;;;;;18.30;64.43;101612.78;5097332;27;20096;-82
2021/11/05 01:30:46;;;;;;;8.30;2.60;;;;;;;18.33;64.27;101605.63;5094825;27;20049;-82
2021/11/05 01:33:14;;;;;;;8.02;2.17;;;;;;;18.30;64.27;101610.09;5112926;27;20126;-81
2021/11/05 01:35:44;;;;;;;8.68;2.67;;;;;;;18.17;64.57;101603.91;5112508;27;20048;-81
2021/11/05 01:38:12;;;;;;;8.77;2.78;;;;;;;18.10;64.77;101603.91;5094500;27;20043;-82
2021/11/05 01:40:43;;;;;;;6.20;2.53;;;;;;;17.86;65.29;101599.47;5113040;27;20391;-72
2021/11/05 01:43:13;;;;;;;6.28;2.75;;;;;;;17.76;65.94;101608.38;5094607;27;20044;-81
2021/11/05 01:45:43;;;;;;;10.40;2.50;;;;;;;17.88;66.03;101608.38;5112809;27;20058;-81
2021/11/05 01:48:11;;;;;;;9.82;3.05;;;;;;;18.05;65.54;101614.59;5094799;27;20047;-82
2021/11/05 01:50:39;;;;;;;7.55;3.00;;;;;;;18.16;65.01;101604.78;5112798;27;20063;-81
2021/11/05 01:53:08;;;;;;;8.95;2.40;;;;;;;18.22;64.62;101611.91;5116564;27;20047;-82
2021/11/05 01:55:35;;;;;;;10.82;2.83;;;;;;;18.17;64.56;101606.56;5116738;27;20040;-81
2021/11/05 01:58:03;;;;;;;10.82;2.45;;;;;;;18.17;64.60;101606.56;5112475;27;20047;-82
2021/11/05 02:00:33;;;;;;;9.18;2.78;;;;;;;18.11;64.83;101605.69;5112285;27;20050;-81
2021/11/05 02:03:02;;;;;;;11.40;2.70;;;;;;;18.16;65.03;101606.56;5128366;27;20104;-82
2021/11/05 02:05:30;;;;;;;7.63;2.40;;;;;;;18.14;65.16;101601.22;5112296;27;20403;-82
2021/11/05 02:07:58;;;;;;;10.27;2.60;;;;;;;18.15;65.28;101603.00;5112619;27;20106;-82
2021/11/05 02:10:28;;;;;;;5.47;1.90;;;;;;;18.13;65.44;101596.75;5112383;27;20110;-81
2021/11/05 02:12:57;;;;;;;6.15;2.42;;;;;;;18.17;65.43;101600.34;5112443;27;20043;-82
2021/11/05 02:15:26;;;;;;;8.02;2.75;;;;;;;18.17;65.16;101598.56;5112559;27;20047;-81
2021/11/05 02:17:53;;;;;;;7.70;2.72;;;;;;;18.18;65.07;101597.63;5112464;27;20498;-82
2021/11/05 02:20:25;;;;;;;6.57;2.00;;;;;;;18.09;65.03;101603.00;5112359;27;20048;-82
2021/11/05 02:22:56;;;;;;;8.93;2.92;;;;;;;18.05;65.28;101606.56;5128281;27;20052;-82
2021/11/05 02:25:24;;;;;;;7.82;2.83;;;;;;;18.05;65.33;101606.56;5112386;27;20040;-82
2021/11/05 02:27:53;;;;;;;8.07;2.55;;;;;;;18.10;65.16;101596.78;5112270;27;20036;-82
2021/11/05 02:30:21;;;;;;;8.27;2.88;;;;;;;18.14;65.18;101603.00;5112314;27;20047;-82
2021/11/05 02:32:49;;;;;;;7.22;2.55;;;;;;;18.10;65.03;101601.22;5112263;27;20040;-82
2021/11/05 02:35:17;;;;;;;7.95;2.88;;;;;;;18.01;65.26;101591.44;5128205;27;20043;-82
2021/11/05 02:37:46;;;;;;;10.00;3.22;;;;;;;17.96;65.43;101587.91;5112387;27;20069;-82
2021/11/05 02:40:17;;;;;;;5.97;1.92;;;;;;;18.02;65.23;101593.22;5112147;27;20162;-82
2021/11/05 02:42:44;;;;;;;8.98;3.35;;;;;;;18.07;65.10;101595.88;5112083;27;20127;-82
2021/11/05 02:45:13;;;;;;;7.25;2.30;;;;;;;17.98;65.19;101585.22;5128171;27;20043;-81
2021/11/05 02:47:44;;;;;;;8.35;3.05;;;;;;;17.92;65.39;101588.78;5111649;27;20054;-81
2021/11/05 02:50:13;;;;;;;8.35;3.35;;;;;;;17.97;65.31;101589.69;5111728;27;20054;-81
2021/11/05 02:52:41;;;;;;;15.20;2.45;;;;;;;17.90;65.42;101591.47;5115431;27;20494;-82
2021/11/05 02:55:12;;;;;;;5.78;2.10;;;;;;;17.91;65.51;101592.34;5116096;27;20034;-82
2021/11/05 02:57:41;;;;;;;9.90;3.20;;;;;;;17.92;65.42;101596.78;5119805;27;20039;-72
2021/11/05 03:00:10;;;;;;;9.30;2.78;;;;;;;17.85;65.46;101595.91;5116290;27;20478;-80
2021/11/05 03:02:40;;;;;;;11.80;2.50;;;;;;;17.84;65.58;101601.28;5101308;28;20405;-81
2021/11/05 03:05:08;;;;;;;12.80;3.15;;;;;;;17.86;65.35;101599.47;5115827;27;20093;-82
2021/11/05 03:07:35;;;;;;;10.73;2.55;;;;;;;17.90;65.29;101595.91;5119832;27;20048;-82
2021/11/05 03:10:04;;;;;;;9.02;2.67;;;;;;;17.89;65.32;101595.03;5131517;27;20043;-81
2021/11/05 03:12:31;;;;;;;11.35;2.65;;;;;;;17.85;65.39;101603.91;5115692;27;20039;-82
2021/11/05 03:15:00;;;;;;;8.02;2.72;;;;;;;17.85;65.46;101603.91;5115448;27;20051;-82
2021/11/05 03:17:28;;;;;;;9.55;2.60;;;;;;;17.90;65.23;101604.81;5097558;27;20042;-82
2021/11/05 03:19:56;;;;;;;9.57;2.08;;;;;;;17.89;65.18;101605.72;5115196;27;20495;-81
2021/11/05 03:22:23;;;;;;;9.95;2.97;;;;;;;17.89;65.28;101604.81;5115358;27;20028;-82
2021/11/05 03:24:51;;;;;;;10.20;3.17;;;;;;;17.85;65.31;101611.06;5115589;27;20472;-82
2021/11/05 03:27:20;;;;;;;7.93;2.28;;;;;;;17.80;65.47;101604.81;5115157;27;20085;-82
2021/11/05 03:29:48;;;;;;;6.95;2.72;;;;;;;17.77;65.55;101596.81;5114835;27;20043;-82
2021/11/05 03:32:17;;;;;;;6.93;2.33;;;;;;;17.77;65.49;101597.72;5114766;27;20040;-80
2021/11/05 03:34:45;;;;;;;10.50;2.00;;;;;;;17.70;65.85;101603.06;5114926;27;20495;-82
2021/11/05 03:37:13;;;;;;;9.57;2.33;;;;;;;17.70;65.85;101603.94;5115037;27;20089;-82
2021/11/05 03:39:41;;;;;;;7.20;2.42;;;;;;;17.79;65.74;101611.03;5114783;27;20458;-80
2021/11/05 03:42:08;;;;;;;8.75;3.20;;;;;;;17.86;65.53;101610.16;5114855;27;20044;-82
2021/11/05 03:44:36;;;;;;;6.05;2.33;;;;;;;17.90;65.29;101606.59;5118720;27;20054;-82
2021/11/05 03:47:04;;;;;;;13.65;3.45;;;;;;;17.89;65.20;101615.50;5114752;27;20039;-82
2021/11/05 03:49:33;;;;;;;6.43;2.15;;;;;;;17.90;65.08;101610.16;5096844;27;20131;-82
2021/11/05 03:52:01;;;;;;;7.88;3.10;;;;;;;17.93;64.95;101611.94;5114407;27;20487;-81
2021/11/05 03:54:28;;;;;;;13.35;2.67;;;;;;;17.93;65.03;101615.50;5114573;27;20048;-82
2021/11/05 03:56:56;;;;;;;9.57;3.33;;;;;;;17.79;65.21;101619.06;5130373;27;20121;-82
2021/11/05 03:59:24;;;;;;;8.93;2.17;;;;;;;17.72;65.48;101615.50;5114466;27;20495;-81
2021/11/05 04:01:51;;;;;;;5.80;2.30;;;;;;;17.67;65.63;101614.59;5096012;27;20047;-83
2021/11/05 04:04:20;;;;;;;10.68;2.60;;;;;;;17.72;65.66;101619.97;5096450;27;20508;-83
2021/11/05 04:06:48;;;;;;;7.72;2.78;;;;;;;17.79;65.40;101621.72;5095988;27;20410;-80
2021/11/05 04:09:16;;;;;;;10.27;2.95;;;;;;;17.72;65.25;101625.31;5096316;27;20046;-81
2021/11/05 04:11:44;;;;;;;10.30;2.95;;;;;;;17.68;65.52;101628.84;5114568;27;20043;-82
2021/11/05 04:14:12;;;;;;;14.73;3.03;;;;;;;17.69;65.58;101631.53;5130026;27;20043;-80
2021/11/05 04:16:40;;;;;;;7.60;3.47;;;;;;;17.66;65.64;101635.97;5096551;28;20040;-81
2021/11/05 04:19:08;;;;;;;8.70;2.50;;;;;;;17.58;65.68;101638.63;5100521;28;20051;-82
2021/11/05 04:21:36;;;;;;;10.73;3.08;;;;;;;17.51;65.85;101637.72;5118518;27;20192;-82
2021/11/05 04:24:06;;;;;;;8.63;3.10;;;;;;;17.51;66.14;101632.38;5130547;27;20047;-82
2021/11/05 04:26:35;;;;;;;8.50;2.70;;;;;;;17.54;66.01;101635.03;5114039;27;20096;-82
2021/11/05 04:29:03;;;;;;;10.52;3.38;;;;;;;17.54;65.98;101643.06;5113903;27;20050;-81
2021/11/05 04:31:30;;;;;;;9.15;3.42;;;;;;;17.46;66.25;101641.25;5113912;27;20119;-82
2021/11/05 04:33:58;;;;;;;9.00;2.47;;;;;;;17.47;66.47;101640.38;5113996;27;20063;-81
2021/11/05 04:36:26;;;;;;;9.13;2.70;;;;;;;17.56;66.28;101644.84;5113951;27;20059;-82
2021/11/05 04:38:53;;;;;;;6.57;2.70;;;;;;;17.59;66.39;101647.53;5114135;27;20040;-81
2021/11/05 04:41:23;;;;;;;8.35;2.63;;;;;;;17.55;66.43;101651.97;5113639;27;20039;-81
2021/11/05 04:43:51;;;;;;;9.90;3.03;;;;;;;17.57;66.56;101647.53;5113582;27;20502;-81
2021/11/05 04:46:18;;;;;;;8.93;2.70;;;;;;;17.58;66.53;101651.09;5113606;27;20499;-81
2021/11/05 04:48:46;;;;;;;11.95;3.42;;;;;;;17.59;66.67;101652.88;5113650;27;20134;-82
2021/11/05 04:51:14;;;;;;;8.80;2.65;;;;;;;17.61;66.66;101651.09;5095006;27;20367;-82
2021/11/05 04:53:41;;;;;;;13.32;3.13;;;;;;;17.66;66.72;101655.56;5096363;28;20124;-80
2021/11/05 04:56:09;;;;;;;10.15;2.63;;;;;;;17.63;66.68;101654.69;5113683;28;20040;-81
2021/11/05 04:58:38;;;;;;;9.55;2.55;;;;;;;17.59;66.85;101659.06;5118060;27;20044;-82
2021/11/05 05:01:05;;;;;;;7.05;2.42;;;;;;;17.48;67.28;101656.41;5129448;27;20046;-81
2021/11/05 05:03:33;;;;;;;8.63;2.95;;;;;;;17.56;67.58;101664.44;5113411;28;20047;-81
2021/11/05 05:06:01;;;;;;;12.88;2.80;;;;;;;17.68;67.52;101668.91;5095374;28;20039;-81
2021/11/05 05:08:28;;;;;;;12.48;2.97;;;;;;;17.75;67.35;101668.03;5113236;28;20040;-81
2021/11/05 05:10:56;;;;;;;11.35;3.08;;;;;;;17.72;67.42;101674.25;5113258;28;20130;-81
2021/11/05 05:13:24;;;;;;;13.18;3.58;;;;;;;17.74;67.52;101685.84;5112330;28;20044;-81
2021/11/05 05:15:53;;;;;;;9.43;2.92;;;;;;;17.79;67.76;101686.72;5112596;28;20047;-82
2021/11/05 05:18:21;;;;;;;10.05;2.67;;;;;;;17.83;67.92;101684.97;5112757;28;20035;-81
2021/11/05 05:20:49;;;;;;;10.02;2.92;;;;;;;17.83;68.01;101690.31;5112968;28;20036;-81
2021/11/05 05:23:17;;;;;;;9.18;3.13;;;;;;;17.85;68.02;101688.53;5112955;28;20066;-82
2021/11/05 05:25:45;;;;;;;11.35;3.50;;;;;;;17.93;68.05;101692.97;5113121;28;20043;-80
2021/11/05 05:28:13;;;;;;;8.55;2.85;;;;;;;18.06;67.82;101699.22;5094335;28;20191;-80
2021/11/05 05:30:41;;;;;;;9.35;2.70;;;;;;;18.21;67.90;101699.22;5093533;28;20047;-81
2021/11/05 05:33:10;;;;;;;9.00;3.17;;;;;;;18.39;68.55;101692.94;5115621;27;20112;-80
2021/11/05 05:35:37;;;;;;;15.90;9.50;;;;;;;18.67;69.13;101689.38;5117085;27;20040;-80
2021/11/05 05:38:05;;;;;;;13.20;6.90;;;;;;;18.97;69.78;101695.53;5112367;27;20063;-81
2021/11/05 05:40:33;;;;;;;12.10;4.43;;;;;;;19.22;69.53;101698.97;5112737;27;20360;-80
2021/11/05 05:43:00;;;;;;;11.70;3.60;;;;;;;19.45;68.79;101691.69;5094039;27;20433;-80
2021/11/05 05:45:28;;;;;;;9.13;3.05;;;;;;;19.62;68.60;101695.22;5128322;27;20044;-80
2021/11/05 05:47:56;;;;;;;7.90;3.80;;;;;;;19.75;68.61;101687.97;5112334;27;20039;-80
2021/11/05 05:50:25;;;;;;;12.48;3.80;;;;;;;19.90;67.97;101698.56;5112189;27;20040;-78
2021/11/05 05:52:52;;;;;;;12.88;3.13;;;;;;;20.03;67.21;101700.25;5112146;27;20131;-81
2021/11/05 05:55:24;;;;;;;12.70;3.25;;;;;;;20.09;66.02;101700.19;5111990;27;20078;-81
2021/11/05 05:57:52;;;;;;;10.68;3.10;;;;;;;20.10;65.13;101693.94;5127928;27;20146;-80
2021/11/05 06:00:20;;;;;;;11.02;3.20;;;;;;;20.09;64.89;101696.63;5112166;27;20047;-81
2021/11/05 06:02:48;;;;;;;10.95;2.78;;;;;;;20.17;64.90;101697.44;5094257;27;20475;-79
2021/11/05 06:05:16;;;;;;;9.45;2.83;;;;;;;20.40;65.03;101694.59;5112117;27;20539;-78
2021/11/05 06:07:45;;;;;;;9.43;2.72;;;;;;;20.74;65.71;101687.97;5112176;27;20040;-80
2021/11/05 06:10:12;;;;;;;12.55;2.40;;;;;;;21.06;66.08;101685.78;5128425;27;20047;-78
2021/11/05 06:12:40;;;;;;;11.43;3.10;;;;;;;21.43;66.15;101690.69;5128366;27;20058;-81
2021/11/05 06:15:08;;;;;;;11.52;3.47;;;;;;;21.73;66.19;101698.28;5123401;28;20424;-81
2021/11/05 06:17:36;;;;;;;6.30;2.60;;;;;;;22.01;65.72;101704.16;5093584;27;20496;-81
2021/11/05 06:20:05;;;;;;;8.82;3.10;;;;;;;22.34;64.71;101701.78;5119543;27;20500;-81
2021/11/05 06:22:33;;;;;;;12.85;4.38;;;;;;;22.58;64.00;101704.91;5112170;27;20068;-81
2021/11/05 06:25:02;;;;;;;15.43;3.97;;;;;;;22.76;63.20;101711.81;5120605;27;20039;-80
2021/11/05 06:27:29;;;;;;;8.18;2.70;;;;;;;22.80;62.24;101710.81;5116116;27;20531;-81
2021/11/05 06:29:57;;;;;;;14.50;2.78;;;;;;;22.70;61.22;101702.94;5123420;27;20039;-81
2021/11/05 06:32:25;;;;;;;4.97;3.00;;;;;;;22.60;60.88;101705.78;5115917;27;20036;-80
2021/11/05 06:34:53;;;;;;;8.48;2.92;;;;;;;22.56;60.10;101705.88;5097924;27;20047;-80
2021/11/05 06:37:20;;;;;;;11.48;4.88;;;;;;;22.55;59.85;101704.09;5116170;27;20112;-80
2021/11/05 06:39:48;;;;;;;15.00;6.40;;;;;;;22.66;59.44;101710.16;5116195;27;20075;-80
2021/11/05 06:42:21;;;;;;;18.05;6.50;;;;;;;22.88;59.11;101708.88;5115811;27;20097;-79
2021/11/05 06:44:49;;;;;;;14.65;5.18;;;;;;;23.15;59.34;101714.63;5115671;27;20558;-79
2021/11/05 06:47:17;;;;;;;20.77;8.25;;;;;;;23.25;59.03;101716.19;5097044;27;20039;-80
2021/11/05 06:49:45;;;;;;;25.33;12.15;;;;;;;23.40;58.54;101715.84;5115504;27;20044;-76
2021/11/05 06:52:12;;;;;;;12.80;5.93;;;;;;;23.48;57.62;101721.13;5115118;27;20078;-73
2021/11/05 06:54:40;;;;;;;10.60;3.25;;;;;;;23.42;56.22;101716.72;5116076;27;20552;-76
2021/11/05 06:57:09;;;;;;;13.15;5.43;;;;;;;23.31;56.20;101716.03;5119805;27;20046;-77
2021/11/05 06:59:38;;;;;;;18.42;8.80;;;;;;;23.21;56.47;101707.28;5097355;28;20047;-78
2021/11/05 07:02:06;;;;;;;21.63;9.90;;;;;;;23.18;56.95;101706.44;5115468;27;20047;-77
2021/11/05 07:04:33;;;;;;;23.42;12.10;;;;;;;23.18;57.49;101711.84;5115157;27;20475;-78
2021/11/05 07:07:01;;;;;;;25.40;12.52;;;;;;;23.20;57.95;101715.41;5115222;27;20093;-78
2021/11/05 07:09:29;;;;;;;25.40;11.70;;;;;;;23.24;58.45;101725.19;5115115;27;20135;-77
2021/11/05 07:11:57;;;;;;;27.88;10.20;;;;;;;23.28;58.48;101722.41;5097122;27;20491;-77
2021/11/05 07:14:25;;;;;;;24.77;9.88;;;;;;;23.42;58.31;101724.81;5097095;27;20109;-76
2021/11/05 07:16:54;;;;;;;20.40;6.18;;;;;;;23.58;57.99;101723.56;5115000;27;20509;-78
2021/11/05 07:19:24;;;;;;;17.77;7.78;;;;;;;23.63;57.73;101718.94;5115134;27;20416;-76
2021/11/05 07:21:59;;;;;;;22.92;8.85;;;;;;;23.69;57.36;101718.81;5097079;27;20036;-77
2021/11/05 07:24:27;;;;;;;21.35;7.43;;;;;;;23.72;57.12;101720.53;5096737;27;20036;-75
2021/11/05 07:26:55;;;;;;;22.20;7.45;;;;;;;23.76;57.11;101711.47;5114927;27;20044;-76
2021/11/05 07:29:26;;;;;;;28.17;10.98;;;;;;;23.79;57.28;101706.88;5115020;27;20043;-78
2021/11/05 07:31:56;;;;;;;50.55;26.13;;;;;;;23.84;57.69;101712.16;5114801;27;20045;-78
2021/11/05 07:34:24;;;;;;;57.13;26.52;;;;;;;23.75;57.60;101715.97;5096393;27;20141;-77
2021/11/05 07:36:52;;;;;;;213.93;102.45;;;;;;;23.80;57.59;101722.16;5095848;27;20043;-80
2021/11/05 07:39:20;;;;;;;122.50;56.10;;;;;;;23.92;57.42;101717.38;5115046;27;20039;-79
2021/11/05 07:41:47;;;;;;;106.25;46.67;;;;;;;24.02;57.79;101718.94;5114797;27;20125;-79
2021/11/05 07:44:15;;;;;;;66.88;32.17;;;;;;;24.10;58.13;101712.41;5114708;27;20119;-81
2021/11/05 07:46:45;;;;;;;59.83;31.23;;;;;;;24.17;57.97;101721.25;5115442;27;20036;-83
2021/11/05 07:49:14;;;;;;;133.57;56.28;;;;;;;24.25;57.57;101721.97;5115087;28;20097;-81
2021/11/05 07:51:42;;;;;;;163.60;68.30;;;;;;;24.26;57.15;101723.75;5117120;27;20054;-83
2021/11/05 07:54:10;;;;;;;30.83;12.68;;;;;;;24.27;56.48;101724.63;5135367;27;20088;-80
2021/11/05 07:56:38;;;;;;;18.70;5.80;;;;;;;24.31;55.29;101719.13;5135140;27;20055;-83
2021/11/05 07:59:07;;;;;;;15.63;5.10;;;;;;;24.44;54.43;101714.28;5135233;27;20057;-82
2021/11/05 08:01:35;;;;;;;48.00;23.73;;;;;;;24.55;53.44;101713.06;5116972;27;20051;-83
2021/11/05 08:04:02;;;;;;;21.70;11.25;;;;;;;24.67;52.12;101717.25;5134787;27;20039;-83
2021/11/05 08:06:31;;;;;;;13.13;7.15;;;;;;;24.80;52.42;101712.41;5116203;27;20132;-81
2021/11/05 08:08:59;;;;;;;33.08;15.35;;;;;;;24.88;52.45;101713.94;5116599;27;20126;-82
2021/11/05 08:11:29;;;;;;;91.55;46.45;;;;;;;24.90;51.81;101716.63;5116826;27;20451;-83
2021/11/05 08:13:57;;;;;;;105.57;48.80;;;;;;;24.84;51.39;101705.97;5134700;27;20043;-84
2021/11/05 08:16:25;;;;;;;110.13;52.10;;;;;;;24.69;51.85;101709.09;5135052;27;20047;-84
2021/11/05 08:18:53;;;;;;;152.73;58.42;;;;;;;24.52;52.61;101717.66;5117319;27;20449;-84
2021/11/05 08:21:21;;;;;;;123.68;47.35;;;;;;;24.47;53.30;101712.41;5116176;27;20066;-86
2021/11/05 08:23:50;;;;;;;137.55;54.30;;;;;;;24.48;53.70;101708.75;5134703;27;20070;-85
2021/11/05 08:26:18;;;;;;;147.05;56.53;;;;;;;24.52;54.69;101710.44;5134515;27;20062;-83
2021/11/05 08:28:46;;;;;;;100.20;40.15;;;;;;;24.59;55.01;101709.38;5134814;27;20071;-83
2021/11/05 08:31:15;;;;;;;127.43;44.33;;;;;;;24.61;55.18;101715.59;5134318;27;20059;-80
2021/11/05 08:33:44;;;;;;;212.93;80.20;;;;;;;24.61;54.85;101714.72;5115737;27;20045;-80
2021/11/05 08:36:14;;;;;;;258.10;89.25;;;;;;;24.64;54.87;101717.34;5133996;27;20043;-81
2021/11/05 08:38:43;;;;;;;196.35;66.28;;;;;;;24.63;54.31;101713.75;5116292;27;20035;-82
2021/11/05 08:41:16;;;;;;;86.40;27.38;;;;;;;24.84;54.23;101723.06;5134347;27;20463;-82
2021/11/05 08:43:46;;;;;;;77.13;24.88;;;;;;;25.13;54.32;101724.97;5116081;27;20056;-82
2021/11/05 08:46:16;;;;;;;36.22;13.80;;;;;;;25.49;53.58;101724.78;5134144;27;20046;-81
2021/11/05 08:48:45;;;;;;;23.35;8.23;;;;;;;25.88;53.01;101719.97;5134604;27;20118;-82
2021/11/05 08:51:14;;;;;;;35.08;14.80;;;;;;;26.25;51.98;101727.81;5134520;27;20051;-83
2021/11/05 08:53:42;;;;;;;12.65;4.45;;;;;;;26.51;51.14;101722.38;5116391;27;20402;-83
2021/11/05 08:56:12;;;;;;;24.50;9.00;;;;;;;26.63;50.59;101727.38;5134366;27;20047;-81
2021/11/05 08:58:40;;;;;;;52.72;23.33;;;;;;;26.55;49.93;101713.19;5114082;28;20047;-81
2021/11/05 09:01:08;;;;;;;31.70;11.77;;;;;;;26.33;49.95;101723.00;5134110;27;20036;-80
2021/11/05 09:03:36;;;;;;;15.57;6.07;;;;;;;26.29;50.05;101724.06;5134179;27;20047;-80
2021/11/05 09:06:04;;;;;;;17.92;6.75;;;;;;;26.55;50.41;101733.06;5133874;27;20051;-81
2021/11/05 09:08:32;;;;;;;16.10;6.13;;;;;;;26.78;50.57;101721.38;5116122;27;20104;-82
2021/11/05 09:11:01;;;;;;;12.68;4.35;;;;;;;27.04;50.80;101716.88;5134156;27;20486;-82
2021/11/05 09:13:32;;;;;;;25.38;10.65;;;;;;;27.29;51.38;101715.88;5115854;27;20126;-83
2021/11/05 09:15:59;;;;;;;15.35;7.07;;;;;;;27.42;51.87;101721.72;5115951;27;20428;-80
2021/11/05 09:18:27;;;;;;;11.98;4.80;;;;;;;27.63;51.61;101730.88;5133662;27;20072;-81
2021/11/05 09:20:55;;;;;;;8.10;2.38;;;;;;;27.86;51.31;101717.25;5133601;27;20443;-80
2021/11/05 09:23:24;;;;;;;22.92;8.07;;;;;;;28.03;51.01;101719.25;5115364;27;20031;-81
2021/11/05 09:25:54;;;;;;;10.75;3.90;;;;;;;28.16;51.01;101716.97;5131870;27;20044;-81
2021/11/05 09:28:21;;;;;;;14.95;6.22;;;;;;;28.21;50.99;101699.53;5133518;27;20402;-82
2021/11/05 09:30:50;;;;;;;28.40;10.50;;;;;;;28.27;50.81;101703.81;5133218;27;20114;-82
2021/11/05 09:33:19;;;;;;;12.18;3.42;;;;;;;28.27;50.32;101704.69;5133290;27;20043;-83
2021/11/05 09:35:48;;;;;;;17.02;6.80;;;;;;;28.39;49.77;101697.84;5133687;27;20092;-82
2021/11/05 09:38:16;;;;;;;17.70;6.60;;;;;;;28.54;49.88;101697.19;5133289;27;20035;-81
2021/11/05 09:40:44;;;;;;;21.20;9.15;;;;;;;28.75;48.97;101685.38;5133710;27;20099;-76
2021/11/05 09:43:12;;;;;;;14.18;4.38;;;;;;;28.96;48.29;101693.50;5133890;27;20051;-82
2021/11/05 09:45:40;;;;;;;10.98;2.78;;;;;;;29.04;47.40;101689.47;5115006;27;20047;-84
2021/11/05 09:48:09;;;;;;;13.40;4.00;;;;;;;29.14;46.71;101685.41;5115625;27;20031;-83
2021/11/05 09:50:38;;;;;;;13.30;3.25;;;;;;;29.32;45.96;101675.47;5132958;27;20431;-81
2021/11/05 09:53:06;;;;;;;12.82;5.47;;;;;;;29.59;44.80;101678.72;5133173;27;20501;-83
2021/11/05 09:55:36;;;;;;;7.45;3.25;;;;;;;29.50;44.26;101677.31;5133505;27;20514;-83
2021/11/05 09:58:03;;;;;;;12.95;3.05;;;;;;;29.61;43.63;101671.34;5133287;27;20043;-83
2021/11/05 10:00:31;;;;;;;14.52;6.38;;;;;;;29.68;43.09;101665.53;5114924;27;20409;-84
2021/11/05 10:02:59;;;;;;;16.08;6.22;;;;;;;29.60;42.46;101661.44;5133407;27;20065;-83
2021/11/05 10:05:28;;;;;;;15.50;6.95;;;;;;;29.65;42.29;101651.19;5133386;27;20028;-84
2021/11/05 10:07:59;;;;;;;10.65;2.42;;;;;;;29.87;41.16;101646.41;5133210;28;20050;-83
2021/11/05 10:10:28;;;;;;;11.52;2.97;;;;;;;30.03;40.51;101649.28;5133258;28;20109;-83
2021/11/05 10:13:01;;;;;;;18.60;6.55;;;;;;;30.10;40.33;101645.28;5115250;28;20100;-83
2021/11/05 10:15:36;;;;;;;10.20;2.60;;;;;;;29.97;40.15;101633.28;5133207;28;20475;-84
2021/11/05 10:18:09;;;;;;;9.60;3.85;;;;;;;29.84;39.56;101635.69;5133119;28;20139;-84
2021/11/05 10:20:39;;;;;;;18.15;4.82;;;;;;;29.69;40.14;101633.75;5114957;28;20047;-84
2021/11/05 10:23:07;;;;;;;16.27;5.93;;;;;;;29.68;40.46;101623.81;5115104;28;20546;-84
2021/11/05 10:25:38;;;;;;;8.45;3.22;;;;;;;29.70;40.62;101627.34;5132945;28;20122;-84
2021/11/05 10:28:09;;;;;;;15.95;5.32;;;;;;;29.64;41.00;101627.66;5115124;28;20051;-84
2021/11/05 10:30:40;;;;;;;22.40;9.30;;;;;;;29.49;41.79;101625.69;5133327;28;20106;-85
2021/11/05 10:33:08;;;;;;;13.65;4.57;;;;;;;29.11;42.58;101622.97;5133232;28;20067;-81
2021/11/05 10:35:40;;;;;;;6.75;2.17;;;;;;;28.87;43.20;101624.13;5133194;28;20039;-84
2021/11/05 10:38:11;;;;;;;22.55;9.70;;;;;;;28.57;43.71;101620.06;5115105;28;20547;-83
2021/11/05 10:40:42;;;;;;;14.82;5.00;;;;;;;28.13;44.39;101626.50;5132877;28;20066;-85
2021/11/05 10:43:11;;;;;;;15.63;6.28;;;;;;;27.86;44.74;101621.34;5133068;28;20047;-85
2021/11/05 10:45:40;;;;;;;16.75;6.63;;;;;;;27.43;45.45;101614.97;5132694;28;20043;-83
2021/11/05 10:48:10;;;;;;;13.85;4.07;;;;;;;27.14;46.11;101620.66;5132573;28;20071;-85
2021/11/05 10:50:50;;;;;;;9.32;2.80;;;;;;;27.03;46.78;101621.09;5132685;28;20047;-85
2021/11/05 10:53:19;;;;;;;10.32;2.97;;;;;;;27.12;47.15;101625.25;5132133;28;20053;-84
2021/11/05 10:55:49;;;;;;;10.18;3.10;;;;;;;27.14;47.06;101616.13;5114965;28;20103;-82
2021/11/05 10:58:19;;;;;;;14.77;2.90;;;;;;;27.07;46.78;101617.31;5132852;28;20530;-83
2021/11/05 11:00:47;;;;;;;13.57;3.92;;;;;;;27.22;46.84;101611.31;5132334;28;20131;-85
2021/11/05 11:03:17;;;;;;;15.52;3.42;;;;;;;27.38;46.52;101608.84;5132171;28;20039;-83
2021/11/05 11:05:46;;;;;;;10.18;2.70;;;;;;;27.47;45.96;101605.75;5114691;28;20514;-83
2021/11/05 11:08:25;;;;;;;12.90;3.53;;;;;;;27.57;45.50;101607.16;5133204;28;20043;-81
2021/11/05 11:10:55;;;;;;;11.82;4.00;;;;;;;27.74;45.27;101604.66;5132454;27;20045;-83
2021/11/05 11:13:33;;;;;;;9.75;3.13;;;;;;;27.65;45.06;101599.59;5135776;27;20471;-84
2021/11/05 11:16:01;;;;;;;11.93;3.83;;;;;;;27.49;45.05;101593.03;5136288;27;20039;-82
2021/11/05 11:18:29;;;;;;;13.38;5.28;;;;;;;27.33;44.98;101592.75;5136358;27;20047;-84
2021/11/05 11:20:59;;;;;;;9.98;3.10;;;;;;;27.19;45.10;101592.44;5136127;27;20123;-84
2021/11/05 11:23:27;;;;;;;10.75;3.05;;;;;;;27.08;45.29;101582.97;5118070;27;20547;-82
2021/11/05 11:25:55;;;;;;;11.35;3.15;;;;;;;27.03;45.41;101596.72;5135988;27;20116;-84